createdAt,value
2023-04-17T00:02:04.144Z,63.52
2023-04-17T00:05:08.214Z,63.48
2023-04-17T00:08:09.861Z,63.18
2023-04-17T00:11:11.361Z,63.51
2023-04-17T00:14:12.953Z,63.33
2023-04-17T00:17:14.421Z,63.71
2023-04-17T00:20:15.995Z,63.14
2023-04-17T00:23:17.549Z,63.48
2023-04-17T00:26:19.594Z,63.70
2023-04-17T00:29:21.181Z,63.53
2023-04-17T00:32:22.883Z,63.63
2023-04-17T00:35:24.401Z,63.48
2023-04-17T00:38:26.123Z,63.64
2023-04-17T00:41:27.721Z,63.57
2023-04-17T00:44:29.582Z,64.03
2023-04-17T00:47:31.082Z,63.68
2023-04-17T00:50:33.600Z,63.72
2023-04-17T00:53:35.940Z,63.79
2023-04-17T00:56:38.558Z,63.84
2023-04-17T00:59:40.285Z,63.81
2023-04-17T01:02:41.881Z,63.73
2023-04-17T01:05:50.026Z,63.70
2023-04-17T01:08:51.612Z,63.67
2023-04-17T01:11:53.216Z,63.48
2023-04-17T01:14:56.596Z,63.51
2023-04-17T01:17:58.611Z,63.63
2023-04-17T01:21:01.375Z,63.83
2023-04-17T01:24:03.377Z,63.65
2023-04-17T01:27:06.894Z,63.75
2023-04-17T01:30:09.278Z,63.80
2023-04-17T01:33:17.945Z,63.89
2023-04-17T01:36:19.607Z,63.72
2023-04-17T01:39:21.624Z,63.81
2023-04-17T01:42:23.270Z,63.88
2023-04-17T01:45:24.791Z,63.69
2023-04-17T01:48:26.307Z,63.71
2023-04-17T01:51:27.923Z,63.60
2023-04-17T01:54:29.744Z,63.52
2023-04-17T01:57:33.103Z,63.80
2023-04-17T02:00:34.693Z,63.48
2023-04-17T02:03:36.444Z,63.69
2023-04-17T02:06:38.057Z,63.95
2023-04-17T02:09:39.591Z,63.84
2023-04-17T02:12:42.396Z,63.57
2023-04-17T02:15:44.518Z,63.88
2023-04-17T02:18:48.636Z,63.90
2023-04-17T02:21:50.115Z,63.90
2023-04-17T02:24:51.605Z,64.07
2023-04-17T02:27:56.109Z,63.97
2023-04-17T02:30:59.022Z,64.03
2023-04-17T02:34:00.625Z,64.05
2023-04-17T02:37:02.406Z,63.76
2023-04-17T02:40:07.282Z,64.01
2023-04-17T02:43:08.845Z,63.83
2023-04-17T02:46:11.197Z,64.13
2023-04-17T02:49:12.875Z,63.74
2023-04-17T02:52:14.660Z,64.10
2023-04-17T02:55:16.786Z,64.08
2023-04-17T02:58:18.480Z,64.05
2023-04-17T03:01:20.079Z,63.89
2023-04-17T03:04:22.011Z,63.86
2023-04-17T03:07:23.799Z,64.10
2023-04-17T03:10:25.698Z,64.13
2023-04-17T03:13:27.410Z,64.32
2023-04-17T03:16:29.046Z,63.93
2023-04-17T03:19:34.496Z,63.93
2023-04-17T03:22:36.631Z,64.16
2023-04-17T03:25:39.816Z,64.07
2023-04-17T03:28:42.020Z,64.09
2023-04-17T03:31:43.527Z,64.00
2023-04-17T03:34:45.059Z,63.94
2023-04-17T03:37:46.678Z,64.08
2023-04-17T03:40:48.518Z,64.10
2023-04-17T03:43:50.206Z,63.76
2023-04-17T03:46:51.662Z,63.98
2023-04-17T03:49:53.515Z,63.44
2023-04-17T03:52:55.815Z,63.80
2023-04-17T03:55:59.604Z,63.72
2023-04-17T03:59:05.978Z,63.55
2023-04-17T04:02:12.426Z,63.39
2023-04-17T04:05:15.086Z,63.31
2023-04-17T04:08:17.790Z,63.31
2023-04-17T04:11:23.810Z,63.09
2023-04-17T04:14:25.615Z,63.20
2023-04-17T04:17:27.192Z,62.92
2023-04-17T04:20:28.943Z,62.96
2023-04-17T04:23:45.469Z,62.87
2023-04-17T04:26:49.667Z,62.77
2023-04-17T04:29:51.999Z,62.88
2023-04-17T04:32:56.888Z,62.80
2023-04-17T04:36:01.374Z,62.65
2023-04-17T04:39:05.636Z,62.62
2023-04-17T04:42:11.059Z,62.48
2023-04-17T04:45:24.708Z,62.58
2023-04-17T04:48:28.706Z,62.54
2023-04-17T04:51:31.833Z,62.63
2023-04-17T04:54:33.520Z,62.41
2023-04-17T04:57:36.652Z,62.37
2023-04-17T05:00:39.048Z,62.58
2023-04-17T05:03:40.960Z,62.71
2023-04-17T05:06:44.779Z,62.67
2023-04-17T05:09:46.334Z,63.04
2023-04-17T05:12:50.204Z,62.69
2023-04-17T05:15:52.139Z,62.85
2023-04-17T05:18:58.988Z,62.61
2023-04-17T05:22:32.846Z,62.73
2023-04-17T05:25:43.112Z,62.77
2023-04-17T05:28:45.297Z,62.59
2023-04-17T05:31:51.804Z,62.83
2023-04-17T05:35:11.064Z,62.54
2023-04-17T05:38:14.175Z,62.66
2023-04-17T05:41:15.722Z,62.66
2023-04-17T05:44:18.909Z,62.45
2023-04-17T05:47:20.575Z,62.46
2023-04-17T05:50:22.108Z,62.32
2023-04-17T05:53:23.862Z,62.40
2023-04-17T05:56:30.023Z,62.22
2023-04-17T05:59:31.665Z,62.01
2023-04-17T06:02:34.268Z,62.30
2023-04-17T06:05:36.106Z,62.19
2023-04-17T06:08:38.087Z,62.35
2023-04-17T06:11:39.694Z,62.09
2023-04-17T06:14:41.558Z,62.12
2023-04-17T06:17:44.367Z,62.39
2023-04-17T06:20:46.359Z,62.17
2023-04-17T06:23:48.232Z,62.38
2023-04-17T06:26:51.659Z,62.17
2023-04-17T06:29:53.207Z,62.06
2023-04-17T06:32:55.143Z,61.90
2023-04-17T06:35:56.678Z,61.77
2023-04-17T06:39:05.681Z,62.00
2023-04-17T06:42:07.713Z,62.10
2023-04-17T06:45:13.821Z,61.91
2023-04-17T06:48:15.352Z,61.88
2023-04-17T06:51:20.595Z,61.98
2023-04-17T06:54:22.398Z,61.94
2023-04-17T06:57:24.011Z,61.89
2023-04-17T07:00:25.693Z,61.80
2023-04-17T07:03:27.278Z,61.90
2023-04-17T07:06:29.132Z,61.84
2023-04-17T07:09:30.633Z,61.98
2023-04-17T07:12:32.895Z,62.05
2023-04-17T07:15:34.403Z,61.90
2023-04-17T07:18:35.991Z,62.03
2023-04-17T07:21:37.717Z,61.98
2023-04-17T07:24:39.253Z,61.89
2023-04-17T07:27:40.749Z,62.13
2023-04-17T07:30:42.637Z,61.99
2023-04-17T07:33:44.276Z,62.23
2023-04-17T07:36:47.182Z,62.16
2023-04-17T07:39:50.240Z,62.04
2023-04-17T07:42:52.741Z,62.11
2023-04-17T07:45:55.535Z,62.09
2023-04-17T07:48:57.052Z,62.23
2023-04-17T07:51:58.605Z,61.76
2023-04-17T07:55:00.261Z,61.96
2023-04-17T07:58:03.749Z,61.97
2023-04-17T08:01:08.259Z,61.80
2023-04-17T08:04:10.113Z,61.70
2023-04-17T08:07:12.725Z,61.71
2023-04-17T08:10:14.424Z,61.98
2023-04-17T08:13:16.270Z,61.93
2023-04-17T08:16:17.816Z,61.90
2023-04-17T08:19:19.440Z,61.83
2023-04-17T08:22:24.044Z,61.94
2023-04-17T08:25:25.653Z,61.98
2023-04-17T08:28:27.220Z,61.78
2023-04-17T08:31:28.974Z,61.96
2023-04-17T08:34:31.968Z,62.04
2023-04-17T08:37:35.537Z,62.03
2023-04-17T08:40:37.720Z,62.14
2023-04-17T08:43:40.190Z,61.87
2023-04-17T08:46:42.094Z,62.07
2023-04-17T08:49:45.852Z,62.09
2023-04-17T08:52:49.277Z,62.08
2023-04-17T08:55:50.771Z,62.11
2023-04-17T08:58:52.335Z,62.03
2023-04-17T09:02:04.429Z,62.15
2023-04-17T09:05:18.790Z,62.15
2023-04-17T09:08:23.941Z,62.02
2023-04-17T09:11:26.267Z,62.12
2023-04-17T09:14:31.467Z,62.20
2023-04-17T09:17:37.791Z,62.16
2023-04-17T09:20:48.536Z,62.13
2023-04-17T09:23:58.837Z,62.04
2023-04-17T09:27:27.330Z,62.06
2023-04-17T09:30:36.799Z,62.04
2023-04-17T09:33:55.856Z,61.98
2023-04-17T09:36:57.419Z,62.56
2023-04-17T09:40:00.635Z,62.27
2023-04-17T09:43:09.481Z,62.32
2023-04-17T09:46:11.498Z,62.26
2023-04-17T09:49:16.082Z,62.38
2023-04-17T09:52:18.404Z,62.44
2023-04-17T09:55:21.554Z,62.41
2023-04-17T09:58:23.390Z,62.42
2023-04-17T10:01:25.550Z,62.34
2023-04-17T10:04:29.178Z,62.41
2023-04-17T10:07:31.849Z,62.34
2023-04-17T10:10:34.808Z,62.40
2023-04-17T10:13:42.506Z,62.38
2023-04-17T10:16:44.437Z,62.34
2023-04-17T10:19:49.107Z,62.36
2023-04-17T10:22:54.849Z,62.26
2023-04-17T10:26:25.281Z,62.04
2023-04-17T10:30:12.931Z,62.24
2023-04-17T10:33:15.744Z,62.26
2023-04-17T10:36:39.308Z,62.22
2023-04-17T10:39:51.978Z,62.19
2023-04-17T10:43:04.279Z,62.21
2023-04-17T10:46:10.185Z,62.22
2023-04-17T10:49:14.293Z,62.22
2023-04-17T10:52:41.345Z,62.19
2023-04-17T10:55:52.364Z,62.26
2023-04-17T10:59:01.093Z,62.19
2023-04-17T11:02:04.869Z,62.20
2023-04-17T11:05:07.660Z,62.27
2023-04-17T11:08:09.971Z,61.98
2023-04-17T11:11:14.591Z,62.11
2023-04-17T11:14:22.440Z,62.11
2023-04-17T11:17:24.036Z,62.16
2023-04-17T11:20:27.955Z,62.20
2023-04-17T11:23:33.944Z,62.14
2023-04-17T11:26:48.117Z,62.42
2023-04-17T11:29:49.660Z,62.49
2023-04-17T11:32:52.513Z,62.59
2023-04-17T11:35:54.243Z,62.65
2023-04-17T11:38:57.126Z,62.77
2023-04-17T11:41:58.684Z,62.80
2023-04-17T11:45:06.702Z,62.78
2023-04-17T11:48:12.896Z,63.02
2023-04-17T11:51:18.013Z,62.89
2023-04-17T11:54:26.964Z,62.99
2023-04-17T11:57:28.491Z,63.09
2023-04-17T12:00:30.581Z,63.10
2023-04-17T12:03:35.720Z,63.05
2023-04-17T12:06:38.100Z,63.06
2023-04-17T12:09:39.633Z,63.17
2023-04-17T12:12:41.214Z,63.12
2023-04-17T12:15:42.771Z,63.08
2023-04-17T12:18:45.740Z,63.21
2023-04-17T12:21:51.950Z,63.04
2023-04-17T12:24:53.475Z,63.13
2023-04-17T12:27:56.985Z,63.22
2023-04-17T12:30:58.597Z,63.16
2023-04-17T12:34:00.279Z,63.65
2023-04-17T12:37:01.759Z,63.20
2023-04-17T12:40:04.005Z,63.08
2023-04-17T12:43:06.586Z,63.20
2023-04-17T12:46:08.171Z,63.11
2023-04-17T12:49:10.131Z,63.20
2023-04-17T12:52:11.784Z,63.14
2023-04-17T12:55:13.395Z,63.19
2023-04-17T12:58:15.163Z,63.15
2023-04-17T13:01:16.742Z,63.28
2023-04-17T13:04:18.975Z,63.46
2023-04-17T13:07:20.847Z,63.68
2023-04-17T13:10:22.471Z,63.48
2023-04-17T13:13:23.974Z,63.74
2023-04-17T13:16:26.040Z,63.74
2023-04-17T13:19:27.549Z,63.97
2023-04-17T13:22:29.015Z,63.79
2023-04-17T13:25:31.484Z,63.91
2023-04-17T13:28:32.976Z,63.88
2023-04-17T13:31:34.757Z,63.98
2023-04-17T13:34:36.279Z,63.73
2023-04-17T13:37:37.766Z,64.02
2023-04-17T13:40:40.745Z,64.00
2023-04-17T13:43:42.218Z,64.39
2023-04-17T13:46:44.179Z,64.29
2023-04-17T13:49:45.810Z,64.29
2023-04-17T13:52:47.292Z,64.55
2023-04-17T13:55:49.269Z,64.67
2023-04-17T13:58:52.175Z,64.77
2023-04-17T14:01:53.877Z,64.79
2023-04-17T14:04:55.489Z,64.90
2023-04-17T14:07:57.079Z,64.83
2023-04-17T14:10:58.611Z,64.95
2023-04-17T14:14:00.220Z,64.99
2023-04-17T14:17:01.839Z,64.93
2023-04-17T14:20:04.032Z,64.87
2023-04-17T14:23:05.488Z,64.79
2023-04-17T14:26:07.618Z,64.76
2023-04-17T14:29:10.622Z,64.90
2023-04-17T14:32:12.532Z,64.66
2023-04-17T14:35:14.033Z,64.46
2023-04-17T14:38:15.540Z,64.71
2023-04-17T14:41:17.442Z,64.65
2023-04-17T14:44:20.295Z,64.82
2023-04-17T14:47:21.840Z,64.68
2023-04-17T14:50:23.381Z,64.61
2023-04-17T14:53:24.833Z,64.56
2023-04-17T14:56:26.453Z,64.61
2023-04-17T14:59:28.420Z,64.52
2023-04-17T15:02:38.038Z,64.37
2023-04-17T15:05:39.835Z,64.66
2023-04-17T15:08:41.554Z,64.44
2023-04-17T15:11:43.075Z,64.16
2023-04-17T15:14:45.030Z,64.09
2023-04-17T15:17:46.516Z,63.89
2023-04-17T15:20:48.166Z,64.21
2023-04-17T15:23:49.653Z,63.93
2023-04-17T15:26:51.226Z,63.91
2023-04-17T15:29:52.744Z,63.95
2023-04-17T15:32:54.315Z,63.82
2023-04-17T15:35:58.098Z,63.62
2023-04-17T15:39:00.746Z,63.60
2023-04-17T15:42:02.355Z,63.67
2023-04-17T15:45:04.444Z,63.46
2023-04-17T15:48:06.096Z,63.46
2023-04-17T15:51:07.910Z,63.36
2023-04-17T15:54:11.712Z,63.38
2023-04-17T15:57:13.264Z,63.44
2023-04-17T16:00:15.275Z,63.46
2023-04-17T16:03:16.946Z,60.16
2023-04-17T16:06:20.366Z,59.39
2023-04-17T16:09:24.289Z,59.42
2023-04-17T16:12:27.981Z,59.69
2023-04-17T16:15:30.378Z,59.35
2023-04-17T16:18:31.831Z,59.48
2023-04-17T16:21:33.350Z,59.50
2023-04-17T16:24:34.804Z,59.48
2023-04-17T16:27:37.014Z,58.94
2023-04-17T16:30:38.589Z,57.92
2023-04-17T16:33:40.675Z,58.17
2023-04-17T16:36:45.380Z,58.23
2023-04-17T16:39:47.217Z,58.40
2023-04-17T16:42:48.762Z,58.60
2023-04-17T16:45:50.300Z,58.71
2023-04-17T16:48:51.854Z,58.54
2023-04-17T16:51:53.843Z,58.70
2023-04-17T16:54:55.300Z,58.51
2023-04-17T16:57:59.894Z,58.35
2023-04-17T17:01:01.502Z,58.15
2023-04-17T17:04:03.076Z,58.26
2023-04-17T17:07:04.780Z,58.13
2023-04-17T17:10:07.166Z,57.63
2023-04-17T17:13:08.698Z,57.54
2023-04-17T17:16:10.239Z,57.37
2023-04-17T17:19:11.896Z,57.61
2023-04-17T17:22:13.505Z,57.41
2023-04-17T17:25:14.979Z,57.55
2023-04-17T17:28:16.501Z,57.47
2023-04-17T17:31:18.214Z,57.63
2023-04-17T17:34:26.542Z,57.65
2023-04-17T17:37:28.656Z,57.52
2023-04-17T17:40:30.292Z,57.44
2023-04-17T17:43:31.767Z,57.04
2023-04-17T17:46:35.684Z,57.38
2023-04-17T17:49:37.356Z,57.53
2023-04-17T17:52:38.852Z,57.72
2023-04-17T17:55:40.422Z,57.61
2023-04-17T17:58:41.901Z,58.09
2023-04-17T18:01:43.482Z,58.47
2023-04-17T18:04:45.116Z,58.40
2023-04-17T18:07:46.612Z,58.78
2023-04-17T18:10:48.125Z,58.61
2023-04-17T18:13:49.639Z,58.27
2023-04-17T18:16:51.291Z,58.74
2023-04-17T18:19:52.814Z,58.69
2023-04-17T18:22:54.314Z,58.99
2023-04-17T18:25:57.743Z,59.04
2023-04-17T18:28:59.328Z,59.06
2023-04-17T18:32:00.821Z,58.99
2023-04-17T18:35:02.803Z,59.04
2023-04-17T18:38:04.324Z,58.89
2023-04-17T18:41:05.805Z,59.00
2023-04-17T18:44:07.304Z,59.03
2023-04-17T18:47:08.774Z,59.02
2023-04-17T18:50:11.332Z,59.05
2023-04-17T18:53:12.926Z,58.99
2023-04-17T18:56:15.091Z,59.11
2023-04-17T18:59:16.785Z,59.10
2023-04-17T19:02:18.287Z,58.96
2023-04-17T19:05:21.309Z,58.96
2023-04-17T19:08:22.822Z,58.98
2023-04-17T19:11:24.595Z,59.03
2023-04-17T19:14:26.131Z,59.02
2023-04-17T19:17:27.640Z,59.05
2023-04-17T19:20:29.110Z,58.93
2023-04-17T19:23:30.908Z,58.92
2023-04-17T19:26:32.421Z,58.83
2023-04-17T19:29:33.876Z,58.78
2023-04-17T19:32:35.468Z,58.78
2023-04-17T19:35:37.122Z,58.51
2023-04-17T19:38:38.608Z,58.91
2023-04-17T19:41:40.087Z,59.04
2023-04-17T19:44:41.529Z,58.93
2023-04-17T19:47:43.025Z,58.75
2023-04-17T19:50:44.590Z,58.79
2023-04-17T19:53:47.654Z,58.63
2023-04-17T19:56:49.507Z,58.69
2023-04-17T19:59:50.969Z,58.75
2023-04-17T20:02:52.503Z,58.88
2023-04-17T20:05:54.831Z,58.95
2023-04-17T20:08:58.342Z,59.16
2023-04-17T20:11:59.972Z,59.20
2023-04-17T20:15:01.456Z,59.18
2023-04-17T20:18:03.073Z,59.42
2023-04-17T20:21:05.786Z,59.67
2023-04-17T20:24:07.335Z,59.71
2023-04-17T20:27:08.766Z,59.75
2023-04-17T20:30:14.375Z,60.00
2023-04-17T20:33:15.904Z,60.08
2023-04-17T20:36:17.480Z,59.86
2023-04-17T20:39:19.002Z,59.88
2023-04-17T20:42:20.617Z,60.00
2023-04-17T20:45:22.086Z,60.25
2023-04-17T20:48:24.997Z,60.12
2023-04-17T20:51:27.235Z,60.06
2023-04-17T20:54:29.338Z,60.03
2023-04-17T20:57:30.903Z,60.37
2023-04-17T21:00:33.693Z,60.41
2023-04-17T21:03:35.345Z,60.22
2023-04-17T21:06:36.816Z,60.07
2023-04-17T21:09:38.250Z,60.21
2023-04-17T21:12:39.721Z,60.12
2023-04-17T21:15:42.187Z,60.23
2023-04-17T21:18:43.652Z,60.27
2023-04-17T21:21:45.138Z,60.19
2023-04-17T21:24:46.589Z,60.41
2023-04-17T21:27:48.153Z,60.35
2023-04-17T21:30:49.608Z,60.28
2023-04-17T21:33:51.223Z,60.32
2023-04-17T21:36:55.881Z,60.34
2023-04-17T21:39:57.506Z,60.45
2023-04-17T21:43:00.527Z,60.58
2023-04-17T21:46:02.210Z,60.83
2023-04-17T21:49:04.254Z,60.85
2023-04-17T21:52:05.697Z,60.79
2023-04-17T21:55:07.731Z,61.01
2023-04-17T21:58:09.209Z,61.06
2023-04-17T22:01:10.840Z,61.14
2023-04-17T22:04:12.689Z,61.43
2023-04-17T22:07:14.345Z,61.43
2023-04-17T22:10:15.827Z,61.27
2023-04-17T22:13:17.446Z,61.40
2023-04-17T22:16:18.980Z,61.03
2023-04-17T22:19:20.631Z,61.26
2023-04-17T22:22:22.086Z,61.21
2023-04-17T22:25:23.615Z,61.21
2023-04-17T22:28:28.122Z,61.50
2023-04-17T22:31:29.753Z,61.69
2023-04-17T22:34:31.328Z,61.29
2023-04-17T22:37:32.784Z,61.01
2023-04-17T22:40:34.846Z,60.95
2023-04-17T22:43:36.383Z,61.17
2023-04-17T22:46:38.077Z,61.10
2023-04-17T22:49:40.551Z,60.83
2023-04-17T22:52:42.082Z,60.91
2023-04-17T22:55:43.558Z,61.21
2023-04-17T22:58:45.050Z,60.88
2023-04-17T23:01:46.592Z,61.24
2023-04-17T23:04:48.153Z,61.30
2023-04-17T23:07:49.746Z,61.39
2023-04-17T23:10:59.590Z,61.52
2023-04-17T23:14:01.783Z,61.47
2023-04-17T23:17:03.266Z,61.59
2023-04-17T23:20:05.439Z,61.38
2023-04-17T23:23:06.927Z,61.09
2023-04-17T23:26:08.634Z,61.28
2023-04-17T23:29:10.128Z,61.17
2023-04-17T23:32:11.726Z,60.72
2023-04-17T23:35:13.574Z,61.28
2023-04-17T23:38:15.213Z,61.17
2023-04-17T23:41:16.702Z,60.86
2023-04-17T23:44:18.176Z,61.15
2023-04-17T23:47:19.649Z,61.15
2023-04-17T23:50:21.220Z,60.80
2023-04-17T23:53:22.783Z,60.88
2023-04-17T23:56:24.254Z,60.96
2023-04-17T23:59:25.763Z,60.78
